GEML

Melilla Airport

Melilla, Spain
METAR GEML 190830Z 15011KT 110V180 CAVOK 17/10 Q1011
Observed Flight Rules
Oct-19 @ 08:30 UTC (35 minutes ago) Visual Flight Rules
Wind Visibility Clouds
150° at 11 knots 10,000+ meters
  • Clear skies
Temperatures Readings
Current 17°C / 63°F
Dewpoint 10°C / 50°F
Humidity 64%
Altimeter 29.85" Hg
Pressure 1011 hPa
Elevation 55
METAR GEML 190830Z 15011KT 110V180 CAVOK 17/10 Q1011
Observed Flight Rules
Oct-19 @ 08:30 UTC
(35 minutes ago)
VFR
Wind Visibility
150° at 11 knots 10,000+ meters
Clouds
  • Clear skies
Temperature Dewpoint
17°C / 63°F 10°C / 50°F
Humidity Altimeter Pressure
64% 29.85" Hg 1011 hPa